Bayside, Texas
Current Conditions -  °F | °C
As of 6:53 PM on Saturday 20 Dec 2014 (Local Time) from KRKP Reporting Station
Overcast Overcast  
Wind Chill: 55°   Ceiling: 1300
Heat Index: 55°   Visibility: 10mi
Dew Point: 50°   Wind: 7mph
Humidity: 83%   Direction: 30°NNE
Pressure: 30.16"   Gusts: NA
Location:  28.09°N, 97.21°W
Report Text: KRKP 210053Z AUTO 03006KT 10SM OVC013 13/10 A3016 RMK AO2 SLP215 T01280100
Loading
Personal Weather Stations






























Interactive Weather Map New forecast layout! Learn more

10-Day Weather Forecast

Advertisements
Track Severe Weather on mobile